sensor_id;sensor_type;location;lat;lon;timestamp;P1;durP1;ratioP1;P2;durP2;ratioP2
75691;SDS011;64307;52.508;6.090;2022-12-13T00:00:02;25.85;;;13.00;;
75691;SDS011;64307;52.508;6.090;2022-12-13T00:02:29;23.95;;;12.82;;
75691;SDS011;64307;52.508;6.090;2022-12-13T00:04:54;30.38;;;13.60;;
75691;SDS011;64307;52.508;6.090;2022-12-13T00:07:19;28.10;;;12.53;;
75691;SDS011;64307;52.508;6.090;2022-12-13T00:09:45;29.98;;;14.02;;
75691;SDS011;64307;52.508;6.090;2022-12-13T00:12:10;27.80;;;12.90;;
75691;SDS011;64307;52.508;6.090;2022-12-13T00:14:35;26.23;;;12.53;;
75691;SDS011;64307;52.508;6.090;2022-12-13T00:17:01;26.80;;;12.90;;
75691;SDS011;64307;52.508;6.090;2022-12-13T00:19:26;31.33;;;13.88;;
75691;SDS011;64307;52.508;6.090;2022-12-13T00:21:51;29.33;;;13.40;;
75691;SDS011;64307;52.508;6.090;2022-12-13T00:24:17;28.27;;;13.13;;
75691;SDS011;64307;52.508;6.090;2022-12-13T00:26:42;26.95;;;13.43;;
75691;SDS011;64307;52.508;6.090;2022-12-13T00:29:07;31.02;;;13.95;;
75691;SDS011;64307;52.508;6.090;2022-12-13T00:31:33;29.92;;;13.45;;
75691;SDS011;64307;52.508;6.090;2022-12-13T00:34:00;30.45;;;12.45;;
75691;SDS011;64307;52.508;6.090;2022-12-13T00:36:25;30.70;;;13.82;;
75691;SDS011;64307;52.508;6.090;2022-12-13T00:38:51;25.90;;;12.45;;
75691;SDS011;64307;52.508;6.090;2022-12-13T00:41:24;29.10;;;12.95;;
75691;SDS011;64307;52.508;6.090;2022-12-13T00:43:51;28.23;;;12.70;;
75691;SDS011;64307;52.508;6.090;2022-12-13T00:46:17;29.80;;;14.48;;
75691;SDS011;64307;52.508;6.090;2022-12-13T00:48:50;26.83;;;13.65;;
75691;SDS011;64307;52.508;6.090;2022-12-13T00:51:17;28.10;;;12.95;;
75691;SDS011;64307;52.508;6.090;2022-12-13T00:53:43;26.35;;;13.55;;
75691;SDS011;64307;52.508;6.090;2022-12-13T00:56:10;25.20;;;13.02;;
75691;SDS011;64307;52.508;6.090;2022-12-13T00:58:37;30.05;;;13.88;;
75691;SDS011;64307;52.508;6.090;2022-12-13T01:01:07;29.13;;;13.60;;
75691;SDS011;64307;52.508;6.090;2022-12-13T01:03:35;32.60;;;13.57;;
75691;SDS011;64307;52.508;6.090;2022-12-13T01:06:00;31.83;;;13.20;;
75691;SDS011;64307;52.508;6.090;2022-12-13T01:08:26;25.33;;;13.18;;
75691;SDS011;64307;52.508;6.090;2022-12-13T01:10:52;27.70;;;13.77;;
75691;SDS011;64307;52.508;6.090;2022-12-13T01:13:18;29.75;;;14.30;;
75691;SDS011;64307;52.508;6.090;2022-12-13T01:15:44;31.85;;;14.25;;
75691;SDS011;64307;52.508;6.090;2022-12-13T01:18:11;29.90;;;14.35;;
75691;SDS011;64307;52.508;6.090;2022-12-13T01:25:28;29.95;;;12.93;;
75691;SDS011;64307;52.508;6.090;2022-12-13T01:27:54;26.13;;;12.77;;
75691;SDS011;64307;52.508;6.090;2022-12-13T01:30:19;27.25;;;12.82;;
75691;SDS011;64307;52.508;6.090;2022-12-13T01:32:45;30.10;;;16.50;;
75691;SDS011;64307;52.508;6.090;2022-12-13T01:35:10;28.98;;;12.80;;
75691;SDS011;64307;52.508;6.090;2022-12-13T01:37:37;27.92;;;12.80;;
75691;SDS011;64307;52.508;6.090;2022-12-13T01:40:03;32.58;;;14.32;;
75691;SDS011;64307;52.508;6.090;2022-12-13T01:42:28;27.02;;;12.90;;
75691;SDS011;64307;52.508;6.090;2022-12-13T01:50:11;28.77;;;12.52;;
75691;SDS011;64307;52.508;6.090;2022-12-13T01:57:33;24.30;;;11.60;;
75691;SDS011;64307;52.508;6.090;2022-12-13T02:00:02;29.98;;;12.90;;
75691;SDS011;64307;52.508;6.090;2022-12-13T02:02:29;22.98;;;12.35;;
75691;SDS011;64307;52.508;6.090;2022-12-13T02:04:56;30.40;;;13.07;;
75691;SDS011;64307;52.508;6.090;2022-12-13T02:07:43;27.33;;;12.30;;
75691;SDS011;64307;52.508;6.090;2022-12-13T02:10:10;24.50;;;12.05;;
75691;SDS011;64307;52.508;6.090;2022-12-13T02:12:36;26.73;;;13.02;;
75691;SDS011;64307;52.508;6.090;2022-12-13T02:15:06;29.65;;;13.00;;
75691;SDS011;64307;52.508;6.090;2022-12-13T02:20:56;25.70;;;13.05;;
75691;SDS011;64307;52.508;6.090;2022-12-13T02:25:55;23.08;;;12.10;;
75691;SDS011;64307;52.508;6.090;2022-12-13T02:34:16;24.85;;;12.15;;
75691;SDS011;64307;52.508;6.090;2022-12-13T02:36:51;25.70;;;11.70;;
75691;SDS011;64307;52.508;6.090;2022-12-13T02:39:31;26.45;;;11.68;;
75691;SDS011;64307;52.508;6.090;2022-12-13T02:42:18;22.48;;;11.23;;
75691;SDS011;64307;52.508;6.090;2022-12-13T02:45:00;25.65;;;11.27;;
75691;SDS011;64307;52.508;6.090;2022-12-13T02:47:26;23.23;;;11.18;;
75691;SDS011;64307;52.508;6.090;2022-12-13T02:49:55;24.92;;;11.68;;
75691;SDS011;64307;52.508;6.090;2022-12-13T02:52:24;22.98;;;11.85;;
75691;SDS011;64307;52.508;6.090;2022-12-13T02:54:53;29.08;;;14.05;;
75691;SDS011;64307;52.508;6.090;2022-12-13T02:57:30;23.02;;;10.73;;
75691;SDS011;64307;52.508;6.090;2022-12-13T03:00:06;20.90;;;10.15;;
75691;SDS011;64307;52.508;6.090;2022-12-13T03:05:41;24.98;;;11.77;;
75691;SDS011;64307;52.508;6.090;2022-12-13T03:08:54;24.98;;;10.27;;
75691;SDS011;64307;52.508;6.090;2022-12-13T03:11:32;19.60;;;10.73;;
75691;SDS011;64307;52.508;6.090;2022-12-13T03:14:28;22.35;;;9.90;;
75691;SDS011;64307;52.508;6.090;2022-12-13T03:16:57;22.38;;;10.35;;
75691;SDS011;64307;52.508;6.090;2022-12-13T03:19:26;22.70;;;10.55;;
75691;SDS011;64307;52.508;6.090;2022-12-13T03:21:51;21.90;;;10.48;;
75691;SDS011;64307;52.508;6.090;2022-12-13T03:24:18;21.33;;;11.00;;
75691;SDS011;64307;52.508;6.090;2022-12-13T03:26:44;21.65;;;10.55;;
75691;SDS011;64307;52.508;6.090;2022-12-13T03:29:11;19.70;;;10.57;;
75691;SDS011;64307;52.508;6.090;2022-12-13T03:31:36;20.83;;;10.35;;
75691;SDS011;64307;52.508;6.090;2022-12-13T03:34:02;21.17;;;10.73;;
75691;SDS011;64307;52.508;6.090;2022-12-13T03:36:27;20.75;;;10.20;;
75691;SDS011;64307;52.508;6.090;2022-12-13T03:38:52;20.38;;;10.32;;
75691;SDS011;64307;52.508;6.090;2022-12-13T03:41:19;19.15;;;10.50;;
75691;SDS011;64307;52.508;6.090;2022-12-13T03:43:48;22.35;;;10.20;;
75691;SDS011;64307;52.508;6.090;2022-12-13T03:46:14;19.45;;;9.85;;
75691;SDS011;64307;52.508;6.090;2022-12-13T03:48:39;24.40;;;11.05;;
75691;SDS011;64307;52.508;6.090;2022-12-13T03:51:05;22.00;;;10.35;;
75691;SDS011;64307;52.508;6.090;2022-12-13T03:53:31;19.95;;;9.85;;
75691;SDS011;64307;52.508;6.090;2022-12-13T03:55:56;21.10;;;10.30;;
75691;SDS011;64307;52.508;6.090;2022-12-13T03:58:22;20.57;;;10.40;;
75691;SDS011;64307;52.508;6.090;2022-12-13T04:00:47;22.52;;;11.15;;
75691;SDS011;64307;52.508;6.090;2022-12-13T04:03:12;19.52;;;9.20;;
75691;SDS011;64307;52.508;6.090;2022-12-13T04:05:38;23.17;;;10.57;;
75691;SDS011;64307;52.508;6.090;2022-12-13T04:08:03;20.55;;;9.93;;
75691;SDS011;64307;52.508;6.090;2022-12-13T04:10:29;20.42;;;10.52;;
75691;SDS011;64307;52.508;6.090;2022-12-13T04:12:55;20.90;;;10.18;;
75691;SDS011;64307;52.508;6.090;2022-12-13T04:15:38;21.27;;;9.90;;
75691;SDS011;64307;52.508;6.090;2022-12-13T04:18:04;23.02;;;9.77;;
75691;SDS011;64307;52.508;6.090;2022-12-13T04:20:30;21.20;;;9.55;;
75691;SDS011;64307;52.508;6.090;2022-12-13T04:22:55;19.58;;;9.82;;
75691;SDS011;64307;52.508;6.090;2022-12-13T04:25:20;24.80;;;11.02;;
75691;SDS011;64307;52.508;6.090;2022-12-13T04:27:46;20.02;;;10.63;;
75691;SDS011;64307;52.508;6.090;2022-12-13T04:30:12;21.63;;;12.30;;
75691;SDS011;64307;52.508;6.090;2022-12-13T04:32:38;21.17;;;10.38;;
75691;SDS011;64307;52.508;6.090;2022-12-13T04:35:04;19.55;;;10.02;;
75691;SDS011;64307;52.508;6.090;2022-12-13T04:37:29;21.60;;;11.15;;
75691;SDS011;64307;52.508;6.090;2022-12-13T04:39:55;25.98;;;13.02;;
75691;SDS011;64307;52.508;6.090;2022-12-13T04:42:20;24.03;;;11.13;;
75691;SDS011;64307;52.508;6.090;2022-12-13T04:44:46;20.58;;;10.70;;
75691;SDS011;64307;52.508;6.090;2022-12-13T04:47:13;20.73;;;10.60;;
75691;SDS011;64307;52.508;6.090;2022-12-13T04:49:39;22.17;;;10.70;;
75691;SDS011;64307;52.508;6.090;2022-12-13T04:52:04;22.83;;;11.85;;
75691;SDS011;64307;52.508;6.090;2022-12-13T04:54:29;25.03;;;12.00;;
75691;SDS011;64307;52.508;6.090;2022-12-13T04:56:56;22.77;;;11.88;;
75691;SDS011;64307;52.508;6.090;2022-12-13T04:59:21;22.95;;;10.13;;
75691;SDS011;64307;52.508;6.090;2022-12-13T05:01:47;20.17;;;9.73;;
75691;SDS011;64307;52.508;6.090;2022-12-13T05:04:12;24.55;;;11.38;;
75691;SDS011;64307;52.508;6.090;2022-12-13T05:06:37;21.20;;;10.43;;
75691;SDS011;64307;52.508;6.090;2022-12-13T05:09:03;20.38;;;10.43;;
75691;SDS011;64307;52.508;6.090;2022-12-13T05:11:28;27.07;;;10.50;;
75691;SDS011;64307;52.508;6.090;2022-12-13T05:13:54;26.27;;;12.40;;
75691;SDS011;64307;52.508;6.090;2022-12-13T05:16:19;25.42;;;11.38;;
75691;SDS011;64307;52.508;6.090;2022-12-13T05:18:44;22.10;;;11.77;;
75691;SDS011;64307;52.508;6.090;2022-12-13T05:21:10;17.90;;;10.37;;
75691;SDS011;64307;52.508;6.090;2022-12-13T05:23:36;21.45;;;10.63;;
75691;SDS011;64307;52.508;6.090;2022-12-13T05:26:03;23.23;;;11.90;;
75691;SDS011;64307;52.508;6.090;2022-12-13T05:28:28;28.83;;;11.07;;
75691;SDS011;64307;52.508;6.090;2022-12-13T05:30:55;32.90;;;10.98;;
75691;SDS011;64307;52.508;6.090;2022-12-13T05:33:22;27.98;;;11.48;;
75691;SDS011;64307;52.508;6.090;2022-12-13T05:35:48;29.17;;;12.70;;
75691;SDS011;64307;52.508;6.090;2022-12-13T05:38:14;29.35;;;11.82;;
75691;SDS011;64307;52.508;6.090;2022-12-13T05:40:39;25.05;;;11.73;;
75691;SDS011;64307;52.508;6.090;2022-12-13T05:43:04;23.08;;;10.70;;
75691;SDS011;64307;52.508;6.090;2022-12-13T05:45:30;23.73;;;10.98;;
75691;SDS011;64307;52.508;6.090;2022-12-13T05:47:56;22.95;;;11.50;;
75691;SDS011;64307;52.508;6.090;2022-12-13T05:50:21;27.33;;;15.48;;
75691;SDS011;64307;52.508;6.090;2022-12-13T05:52:47;25.45;;;12.38;;
75691;SDS011;64307;52.508;6.090;2022-12-13T05:55:12;24.88;;;11.05;;
75691;SDS011;64307;52.508;6.090;2022-12-13T05:57:37;26.77;;;11.45;;
75691;SDS011;64307;52.508;6.090;2022-12-13T06:00:04;24.38;;;11.45;;
75691;SDS011;64307;52.508;6.090;2022-12-13T06:02:31;32.35;;;14.82;;
75691;SDS011;64307;52.508;6.090;2022-12-13T06:05:01;31.13;;;13.88;;
75691;SDS011;64307;52.508;6.090;2022-12-13T06:07:26;29.20;;;13.63;;
75691;SDS011;64307;52.508;6.090;2022-12-13T06:09:52;28.67;;;14.82;;
75691;SDS011;64307;52.508;6.090;2022-12-13T06:12:17;31.43;;;13.80;;
75691;SDS011;64307;52.508;6.090;2022-12-13T06:14:42;29.97;;;12.97;;
75691;SDS011;64307;52.508;6.090;2022-12-13T06:17:07;33.73;;;12.83;;
75691;SDS011;64307;52.508;6.090;2022-12-13T06:19:33;35.57;;;13.37;;
75691;SDS011;64307;52.508;6.090;2022-12-13T06:21:58;25.23;;;11.77;;
75691;SDS011;64307;52.508;6.090;2022-12-13T06:24:23;27.83;;;12.20;;
75691;SDS011;64307;52.508;6.090;2022-12-13T06:26:49;43.03;;;16.45;;
75691;SDS011;64307;52.508;6.090;2022-12-13T06:29:15;33.28;;;14.27;;
75691;SDS011;64307;52.508;6.090;2022-12-13T06:31:42;33.13;;;13.63;;
75691;SDS011;64307;52.508;6.090;2022-12-13T06:34:07;30.70;;;13.27;;
75691;SDS011;64307;52.508;6.090;2022-12-13T06:36:33;27.48;;;13.15;;
75691;SDS011;64307;52.508;6.090;2022-12-13T06:39:02;23.02;;;11.82;;
75691;SDS011;64307;52.508;6.090;2022-12-13T06:41:28;25.40;;;11.90;;
75691;SDS011;64307;52.508;6.090;2022-12-13T06:43:53;28.67;;;14.05;;
75691;SDS011;64307;52.508;6.090;2022-12-13T06:46:19;20.92;;;8.82;;
75691;SDS011;64307;52.508;6.090;2022-12-13T06:48:44;31.83;;;13.73;;
75691;SDS011;64307;52.508;6.090;2022-12-13T06:51:10;30.10;;;13.02;;
75691;SDS011;64307;52.508;6.090;2022-12-13T06:53:36;26.92;;;12.25;;
75691;SDS011;64307;52.508;6.090;2022-12-13T06:56:03;28.10;;;13.18;;
75691;SDS011;64307;52.508;6.090;2022-12-13T06:58:31;31.08;;;14.15;;
75691;SDS011;64307;52.508;6.090;2022-12-13T07:01:01;27.17;;;11.57;;
75691;SDS011;64307;52.508;6.090;2022-12-13T07:03:28;30.02;;;13.60;;
75691;SDS011;64307;52.508;6.090;2022-12-13T07:05:54;26.33;;;11.80;;
75691;SDS011;64307;52.508;6.090;2022-12-13T07:08:20;29.10;;;12.20;;
75691;SDS011;64307;52.508;6.090;2022-12-13T07:10:45;27.38;;;11.23;;
75691;SDS011;64307;52.508;6.090;2022-12-13T07:13:10;26.73;;;12.25;;
75691;SDS011;64307;52.508;6.090;2022-12-13T07:15:36;27.80;;;12.88;;
75691;SDS011;64307;52.508;6.090;2022-12-13T07:18:01;26.45;;;11.80;;
75691;SDS011;64307;52.508;6.090;2022-12-13T07:20:27;25.65;;;12.18;;
75691;SDS011;64307;52.508;6.090;2022-12-13T07:22:52;24.00;;;11.73;;
75691;SDS011;64307;52.508;6.090;2022-12-13T07:25:20;24.15;;;11.48;;
75691;SDS011;64307;52.508;6.090;2022-12-13T07:27:46;22.92;;;11.73;;
75691;SDS011;64307;52.508;6.090;2022-12-13T07:30:12;26.27;;;12.38;;
75691;SDS011;64307;52.508;6.090;2022-12-13T07:32:37;27.23;;;13.82;;
75691;SDS011;64307;52.508;6.090;2022-12-13T07:35:02;30.87;;;12.43;;
75691;SDS011;64307;52.508;6.090;2022-12-13T07:37:28;27.48;;;12.32;;
75691;SDS011;64307;52.508;6.090;2022-12-13T07:39:53;29.00;;;12.25;;
75691;SDS011;64307;52.508;6.090;2022-12-13T07:42:18;23.07;;;12.40;;
75691;SDS011;64307;52.508;6.090;2022-12-13T07:44:43;27.08;;;11.88;;
75691;SDS011;64307;52.508;6.090;2022-12-13T07:47:09;26.73;;;11.55;;
75691;SDS011;64307;52.508;6.090;2022-12-13T07:49:34;28.73;;;11.87;;
75691;SDS011;64307;52.508;6.090;2022-12-13T07:51:59;23.85;;;11.48;;
75691;SDS011;64307;52.508;6.090;2022-12-13T07:54:25;28.83;;;15.67;;
75691;SDS011;64307;52.508;6.090;2022-12-13T07:56:50;22.38;;;12.07;;
75691;SDS011;64307;52.508;6.090;2022-12-13T07:59:15;29.80;;;12.75;;
75691;SDS011;64307;52.508;6.090;2022-12-13T08:01:40;30.40;;;13.20;;
75691;SDS011;64307;52.508;6.090;2022-12-13T08:04:06;27.67;;;12.18;;
75691;SDS011;64307;52.508;6.090;2022-12-13T08:06:35;25.73;;;12.03;;
75691;SDS011;64307;52.508;6.090;2022-12-13T08:09:01;27.05;;;11.95;;
75691;SDS011;64307;52.508;6.090;2022-12-13T08:11:28;26.13;;;12.10;;
75691;SDS011;64307;52.508;6.090;2022-12-13T08:13:53;29.95;;;12.45;;
75691;SDS011;64307;52.508;6.090;2022-12-13T08:16:19;25.67;;;12.38;;
75691;SDS011;64307;52.508;6.090;2022-12-13T08:18:44;30.00;;;13.70;;
75691;SDS011;64307;52.508;6.090;2022-12-13T08:21:12;27.20;;;13.57;;
75691;SDS011;64307;52.508;6.090;2022-12-13T08:23:37;29.90;;;13.02;;
75691;SDS011;64307;52.508;6.090;2022-12-13T08:26:03;28.02;;;12.38;;
75691;SDS011;64307;52.508;6.090;2022-12-13T08:28:30;29.15;;;13.15;;
75691;SDS011;64307;52.508;6.090;2022-12-13T08:31:06;31.63;;;16.00;;
75691;SDS011;64307;52.508;6.090;2022-12-13T08:33:35;27.45;;;12.50;;
75691;SDS011;64307;52.508;6.090;2022-12-13T08:36:07;33.40;;;12.88;;
75691;SDS011;64307;52.508;6.090;2022-12-13T08:38:34;26.23;;;13.40;;
75691;SDS011;64307;52.508;6.090;2022-12-13T08:40:59;27.45;;;12.27;;
75691;SDS011;64307;52.508;6.090;2022-12-13T08:43:26;29.80;;;12.57;;
75691;SDS011;64307;52.508;6.090;2022-12-13T08:45:51;27.25;;;12.98;;
75691;SDS011;64307;52.508;6.090;2022-12-13T08:48:16;31.08;;;14.00;;
75691;SDS011;64307;52.508;6.090;2022-12-13T08:50:42;26.65;;;12.48;;
75691;SDS011;64307;52.508;6.090;2022-12-13T08:53:07;28.83;;;13.27;;
75691;SDS011;64307;52.508;6.090;2022-12-13T08:55:32;28.42;;;13.30;;
75691;SDS011;64307;52.508;6.090;2022-12-13T08:57:58;27.30;;;13.20;;
75691;SDS011;64307;52.508;6.090;2022-12-13T09:00:27;28.25;;;13.38;;
75691;SDS011;64307;52.508;6.090;2022-12-13T09:02:54;27.17;;;13.38;;
75691;SDS011;64307;52.508;6.090;2022-12-13T09:05:21;30.80;;;13.63;;
75691;SDS011;64307;52.508;6.090;2022-12-13T09:07:47;28.30;;;13.33;;
75691;SDS011;64307;52.508;6.090;2022-12-13T09:10:12;28.33;;;13.10;;
75691;SDS011;64307;52.508;6.090;2022-12-13T09:12:39;26.25;;;12.75;;
75691;SDS011;64307;52.508;6.090;2022-12-13T09:15:06;28.73;;;11.90;;
75691;SDS011;64307;52.508;6.090;2022-12-13T09:17:31;28.08;;;12.98;;
75691;SDS011;64307;52.508;6.090;2022-12-13T09:19:57;28.67;;;12.75;;
75691;SDS011;64307;52.508;6.090;2022-12-13T09:22:22;28.77;;;13.93;;
75691;SDS011;64307;52.508;6.090;2022-12-13T09:24:47;25.80;;;13.15;;
75691;SDS011;64307;52.508;6.090;2022-12-13T09:27:13;28.77;;;12.30;;
75691;SDS011;64307;52.508;6.090;2022-12-13T09:29:38;30.33;;;14.43;;
75691;SDS011;64307;52.508;6.090;2022-12-13T09:32:03;28.17;;;12.73;;
75691;SDS011;64307;52.508;6.090;2022-12-13T09:34:29;30.52;;;13.65;;
75691;SDS011;64307;52.508;6.090;2022-12-13T09:36:54;29.02;;;13.68;;
75691;SDS011;64307;52.508;6.090;2022-12-13T09:39:20;29.53;;;15.23;;
75691;SDS011;64307;52.508;6.090;2022-12-13T09:41:47;28.85;;;12.85;;
75691;SDS011;64307;52.508;6.090;2022-12-13T09:46:50;30.23;;;14.55;;
75691;SDS011;64307;52.508;6.090;2022-12-13T09:49:28;29.95;;;14.63;;
75691;SDS011;64307;52.508;6.090;2022-12-13T09:51:58;27.75;;;15.23;;
75691;SDS011;64307;52.508;6.090;2022-12-13T09:54:26;30.27;;;14.77;;
75691;SDS011;64307;52.508;6.090;2022-12-13T09:56:53;28.95;;;15.48;;
75691;SDS011;64307;52.508;6.090;2022-12-13T09:59:24;26.83;;;16.40;;
75691;SDS011;64307;52.508;6.090;2022-12-13T10:01:52;25.00;;;15.93;;
75691;SDS011;64307;52.508;6.090;2022-12-13T10:04:18;27.17;;;17.10;;
75691;SDS011;64307;52.508;6.090;2022-12-13T10:06:43;26.40;;;16.98;;
75691;SDS011;64307;52.508;6.090;2022-12-13T10:09:09;25.98;;;18.17;;
75691;SDS011;64307;52.508;6.090;2022-12-13T10:11:44;24.08;;;17.15;;
75691;SDS011;64307;52.508;6.090;2022-12-13T10:14:26;23.30;;;16.95;;
75691;SDS011;64307;52.508;6.090;2022-12-13T10:16:58;27.30;;;18.25;;
75691;SDS011;64307;52.508;6.090;2022-12-13T10:19:31;25.63;;;18.42;;
75691;SDS011;64307;52.508;6.090;2022-12-13T10:21:59;23.45;;;17.73;;
75691;SDS011;64307;52.508;6.090;2022-12-13T10:24:27;22.77;;;17.75;;
75691;SDS011;64307;52.508;6.090;2022-12-13T10:27:33;21.63;;;16.88;;
75691;SDS011;64307;52.508;6.090;2022-12-13T10:30:11;24.27;;;17.88;;
75691;SDS011;64307;52.508;6.090;2022-12-13T10:32:52;24.15;;;17.30;;
75691;SDS011;64307;52.508;6.090;2022-12-13T10:37:54;23.40;;;16.75;;
75691;SDS011;64307;52.508;6.090;2022-12-13T10:40:22;24.08;;;17.90;;
75691;SDS011;64307;52.508;6.090;2022-12-13T10:43:04;22.63;;;16.88;;
75691;SDS011;64307;52.508;6.090;2022-12-13T10:48:39;21.92;;;16.50;;
75691;SDS011;64307;52.508;6.090;2022-12-13T10:51:13;23.23;;;16.77;;
75691;SDS011;64307;52.508;6.090;2022-12-13T10:53:46;23.55;;;17.75;;
75691;SDS011;64307;52.508;6.090;2022-12-13T10:56:18;23.23;;;18.23;;
75691;SDS011;64307;52.508;6.090;2022-12-13T10:58:47;26.58;;;19.23;;
75691;SDS011;64307;52.508;6.090;2022-12-13T11:04:01;26.25;;;18.98;;
75691;SDS011;64307;52.508;6.090;2022-12-13T11:06:41;23.77;;;18.75;;
75691;SDS011;64307;52.508;6.090;2022-12-13T11:09:15;25.55;;;19.42;;
75691;SDS011;64307;52.508;6.090;2022-12-13T11:12:02;23.65;;;17.70;;
75691;SDS011;64307;52.508;6.090;2022-12-13T11:14:47;24.25;;;18.35;;
75691;SDS011;64307;52.508;6.090;2022-12-13T11:17:15;24.02;;;18.08;;
75691;SDS011;64307;52.508;6.090;2022-12-13T11:22:19;25.33;;;20.08;;
75691;SDS011;64307;52.508;6.090;2022-12-13T11:24:49;26.88;;;20.00;;
75691;SDS011;64307;52.508;6.090;2022-12-13T11:40:28;30.15;;;20.50;;
75691;SDS011;64307;52.508;6.090;2022-12-13T11:43:08;29.17;;;19.80;;
75691;SDS011;64307;52.508;6.090;2022-12-13T11:45:49;27.85;;;17.60;;
75691;SDS011;64307;52.508;6.090;2022-12-13T11:48:24;26.70;;;16.70;;
75691;SDS011;64307;52.508;6.090;2022-12-13T11:51:00;26.05;;;15.60;;
75691;SDS011;64307;52.508;6.090;2022-12-13T11:53:33;28.95;;;17.15;;
75691;SDS011;64307;52.508;6.090;2022-12-13T11:56:20;27.58;;;15.38;;
75691;SDS011;64307;52.508;6.090;2022-12-13T12:04:18;31.45;;;15.93;;
75691;SDS011;64307;52.508;6.090;2022-12-13T12:09:36;32.03;;;15.32;;
75691;SDS011;64307;52.508;6.090;2022-12-13T12:12:07;28.73;;;14.65;;
75691;SDS011;64307;52.508;6.090;2022-12-13T12:17:08;27.05;;;14.13;;
75691;SDS011;64307;52.508;6.090;2022-12-13T12:19:38;27.90;;;14.32;;
75691;SDS011;64307;52.508;6.090;2022-12-13T12:25:09;29.38;;;14.18;;
75691;SDS011;64307;52.508;6.090;2022-12-13T12:32:42;30.92;;;15.35;;
75691;SDS011;64307;52.508;6.090;2022-12-13T12:35:16;29.98;;;15.25;;
75691;SDS011;64307;52.508;6.090;2022-12-13T12:37:51;29.52;;;13.98;;
75691;SDS011;64307;52.508;6.090;2022-12-13T12:52:07;29.40;;;15.23;;
75691;SDS011;64307;52.508;6.090;2022-12-13T12:54:43;32.72;;;14.82;;
75691;SDS011;64307;52.508;6.090;2022-12-13T13:00:16;28.70;;;13.35;;
75691;SDS011;64307;52.508;6.090;2022-12-13T13:08:21;28.05;;;13.55;;
75691;SDS011;64307;52.508;6.090;2022-12-13T13:10:51;30.02;;;13.80;;
75691;SDS011;64307;52.508;6.090;2022-12-13T13:16:00;25.48;;;12.43;;
75691;SDS011;64307;52.508;6.090;2022-12-13T13:18:46;23.92;;;12.65;;
75691;SDS011;64307;52.508;6.090;2022-12-13T13:21:25;28.20;;;12.68;;
75691;SDS011;64307;52.508;6.090;2022-12-13T13:26:43;28.50;;;13.82;;
75691;SDS011;64307;52.508;6.090;2022-12-13T13:29:30;25.13;;;12.95;;
75691;SDS011;64307;52.508;6.090;2022-12-13T13:34:36;27.40;;;12.48;;
75691;SDS011;64307;52.508;6.090;2022-12-13T13:39:56;27.35;;;12.23;;
75691;SDS011;64307;52.508;6.090;2022-12-13T13:42:23;28.25;;;12.98;;
75691;SDS011;64307;52.508;6.090;2022-12-13T13:47:27;27.67;;;12.32;;
75691;SDS011;64307;52.508;6.090;2022-12-13T13:52:27;30.13;;;13.85;;
75691;SDS011;64307;52.508;6.090;2022-12-13T14:12:12;25.92;;;11.32;;
75691;SDS011;64307;52.508;6.090;2022-12-13T14:17:48;25.67;;;11.63;;
75691;SDS011;64307;52.508;6.090;2022-12-13T14:21:00;27.83;;;12.23;;
75691;SDS011;64307;52.508;6.090;2022-12-13T14:29:50;27.48;;;11.60;;
75691;SDS011;64307;52.508;6.090;2022-12-13T14:32:19;30.98;;;15.85;;
75691;SDS011;64307;52.508;6.090;2022-12-13T14:34:45;34.28;;;14.30;;
75691;SDS011;64307;52.508;6.090;2022-12-13T14:37:30;28.08;;;13.25;;
75691;SDS011;64307;52.508;6.090;2022-12-13T14:39:57;29.17;;;13.80;;
75691;SDS011;64307;52.508;6.090;2022-12-13T14:42:24;32.88;;;13.95;;
75691;SDS011;64307;52.508;6.090;2022-12-13T14:44:54;30.20;;;13.48;;
75691;SDS011;64307;52.508;6.090;2022-12-13T14:47:20;32.60;;;14.60;;
75691;SDS011;64307;52.508;6.090;2022-12-13T14:49:49;33.33;;;15.02;;
75691;SDS011;64307;52.508;6.090;2022-12-13T14:52:25;28.63;;;13.77;;
75691;SDS011;64307;52.508;6.090;2022-12-13T14:54:58;34.03;;;15.40;;
75691;SDS011;64307;52.508;6.090;2022-12-13T14:57:28;31.13;;;14.27;;
75691;SDS011;64307;52.508;6.090;2022-12-13T14:59:56;29.50;;;14.65;;
75691;SDS011;64307;52.508;6.090;2022-12-13T15:02:24;31.08;;;14.75;;
75691;SDS011;64307;52.508;6.090;2022-12-13T15:04:54;30.77;;;14.02;;
75691;SDS011;64307;52.508;6.090;2022-12-13T15:07:39;36.05;;;16.83;;
75691;SDS011;64307;52.508;6.090;2022-12-13T15:10:23;37.00;;;15.90;;
75691;SDS011;64307;52.508;6.090;2022-12-13T15:12:57;34.30;;;15.63;;
75691;SDS011;64307;52.508;6.090;2022-12-13T15:15:28;36.83;;;15.52;;
75691;SDS011;64307;52.508;6.090;2022-12-13T15:18:17;33.72;;;15.45;;
75691;SDS011;64307;52.508;6.090;2022-12-13T15:20:45;34.30;;;16.23;;
75691;SDS011;64307;52.508;6.090;2022-12-13T15:23:13;32.28;;;15.77;;
75691;SDS011;64307;52.508;6.090;2022-12-13T15:26:14;32.78;;;14.82;;
75691;SDS011;64307;52.508;6.090;2022-12-13T15:28:41;33.40;;;14.50;;
75691;SDS011;64307;52.508;6.090;2022-12-13T15:31:08;37.55;;;16.38;;
75691;SDS011;64307;52.508;6.090;2022-12-13T15:33:35;35.83;;;15.52;;
75691;SDS011;64307;52.508;6.090;2022-12-13T15:38:35;37.30;;;17.13;;
75691;SDS011;64307;52.508;6.090;2022-12-13T15:41:04;40.47;;;17.23;;
75691;SDS011;64307;52.508;6.090;2022-12-13T15:43:51;39.58;;;16.95;;
75691;SDS011;64307;52.508;6.090;2022-12-13T15:46:27;40.45;;;18.05;;
75691;SDS011;64307;52.508;6.090;2022-12-13T15:48:55;40.63;;;19.30;;
75691;SDS011;64307;52.508;6.090;2022-12-13T15:51:23;38.30;;;17.55;;
75691;SDS011;64307;52.508;6.090;2022-12-13T15:56:39;41.65;;;18.95;;
75691;SDS011;64307;52.508;6.090;2022-12-13T15:59:26;40.13;;;17.80;;
75691;SDS011;64307;52.508;6.090;2022-12-13T16:01:56;32.88;;;15.35;;
75691;SDS011;64307;52.508;6.090;2022-12-13T16:04:23;41.90;;;17.23;;
75691;SDS011;64307;52.508;6.090;2022-12-13T16:06:52;40.00;;;18.00;;
75691;SDS011;64307;52.508;6.090;2022-12-13T16:09:19;35.83;;;16.73;;
75691;SDS011;64307;52.508;6.090;2022-12-13T16:11:47;39.28;;;17.77;;
75691;SDS011;64307;52.508;6.090;2022-12-13T16:17:00;40.45;;;17.52;;
75691;SDS011;64307;52.508;6.090;2022-12-13T16:19:29;37.45;;;15.40;;
75691;SDS011;64307;52.508;6.090;2022-12-13T16:21:56;36.22;;;15.13;;
75691;SDS011;64307;52.508;6.090;2022-12-13T16:24:21;40.78;;;16.90;;
75691;SDS011;64307;52.508;6.090;2022-12-13T16:26:47;35.63;;;18.70;;
75691;SDS011;64307;52.508;6.090;2022-12-13T16:29:13;35.33;;;16.73;;
75691;SDS011;64307;52.508;6.090;2022-12-13T16:31:40;35.08;;;19.92;;
75691;SDS011;64307;52.508;6.090;2022-12-13T16:34:06;35.40;;;16.13;;
75691;SDS011;64307;52.508;6.090;2022-12-13T16:36:32;34.78;;;16.58;;
75691;SDS011;64307;52.508;6.090;2022-12-13T16:38:58;33.45;;;15.13;;
75691;SDS011;64307;52.508;6.090;2022-12-13T16:41:23;41.53;;;18.55;;
75691;SDS011;64307;52.508;6.090;2022-12-13T16:43:52;38.60;;;16.95;;
75691;SDS011;64307;52.508;6.090;2022-12-13T16:46:20;36.92;;;16.67;;
75691;SDS011;64307;52.508;6.090;2022-12-13T16:48:46;34.85;;;16.08;;
75691;SDS011;64307;52.508;6.090;2022-12-13T16:51:11;32.90;;;15.00;;
75691;SDS011;64307;52.508;6.090;2022-12-13T16:53:37;32.35;;;14.57;;
75691;SDS011;64307;52.508;6.090;2022-12-13T16:56:02;36.60;;;16.85;;